sensor_id;sensor_type;location;lat;lon;timestamp;P1;durP1;ratioP1;P2;durP2;ratioP2
50737;SDS011;36703;48.154;17.126;2024-03-29T00:03:08;0.68;;;0.40;;
50737;SDS011;36703;48.154;17.126;2024-03-29T00:07:11;0.70;;;0.40;;
50737;SDS011;36703;48.154;17.126;2024-03-29T00:11:12;0.63;;;0.45;;
50737;SDS011;36703;48.154;17.126;2024-03-29T00:15:14;0.50;;;0.40;;
50737;SDS011;36703;48.154;17.126;2024-03-29T00:19:15;1.25;;;0.40;;
50737;SDS011;36703;48.154;17.126;2024-03-29T00:23:17;1.90;;;0.47;;
50737;SDS011;36703;48.154;17.126;2024-03-29T00:27:21;0.45;;;0.40;;
50737;SDS011;36703;48.154;17.126;2024-03-29T00:31:26;0.40;;;0.35;;
50737;SDS011;36703;48.154;17.126;2024-03-29T00:35:27;0.80;;;0.40;;
50737;SDS011;36703;48.154;17.126;2024-03-29T00:39:29;1.58;;;0.22;;
50737;SDS011;36703;48.154;17.126;2024-03-29T00:43:30;0.55;;;0.30;;
50737;SDS011;36703;48.154;17.126;2024-03-29T00:47:32;1.23;;;0.40;;
50737;SDS011;36703;48.154;17.126;2024-03-29T00:51:34;0.50;;;0.30;;
50737;SDS011;36703;48.154;17.126;2024-03-29T00:55:36;0.75;;;0.43;;
50737;SDS011;36703;48.154;17.126;2024-03-29T00:59:37;0.50;;;0.40;;
50737;SDS011;36703;48.154;17.126;2024-03-29T01:03:39;0.85;;;0.45;;
50737;SDS011;36703;48.154;17.126;2024-03-29T01:07:41;0.50;;;0.40;;
50737;SDS011;36703;48.154;17.126;2024-03-29T01:11:42;0.80;;;0.60;;
50737;SDS011;36703;48.154;17.126;2024-03-29T01:15:44;0.73;;;0.40;;
50737;SDS011;36703;48.154;17.126;2024-03-29T01:19:45;1.48;;;0.40;;
50737;SDS011;36703;48.154;17.126;2024-03-29T01:23:47;1.15;;;0.60;;
50737;SDS011;36703;48.154;17.126;2024-03-29T01:27:49;0.80;;;0.60;;
50737;SDS011;36703;48.154;17.126;2024-03-29T01:31:51;1.05;;;0.55;;
50737;SDS011;36703;48.154;17.126;2024-03-29T01:35:53;0.77;;;0.60;;
50737;SDS011;36703;48.154;17.126;2024-03-29T01:39:54;0.55;;;0.45;;
50737;SDS011;36703;48.154;17.126;2024-03-29T01:43:56;1.10;;;0.70;;
50737;SDS011;36703;48.154;17.126;2024-03-29T01:47:58;0.70;;;0.55;;
50737;SDS011;36703;48.154;17.126;2024-03-29T01:51:59;2.80;;;0.60;;
50737;SDS011;36703;48.154;17.126;2024-03-29T01:56:03;0.77;;;0.40;;
50737;SDS011;36703;48.154;17.126;2024-03-29T02:00:05;0.70;;;0.40;;
50737;SDS011;36703;48.154;17.126;2024-03-29T02:04:08;2.13;;;0.52;;
50737;SDS011;36703;48.154;17.126;2024-03-29T02:08:10;0.65;;;0.43;;
50737;SDS011;36703;48.154;17.126;2024-03-29T02:12:12;0.88;;;0.57;;
50737;SDS011;36703;48.154;17.126;2024-03-29T02:16:13;1.10;;;0.60;;
50737;SDS011;36703;48.154;17.126;2024-03-29T02:20:15;0.80;;;0.60;;
50737;SDS011;36703;48.154;17.126;2024-03-29T02:24:16;1.80;;;0.60;;
50737;SDS011;36703;48.154;17.126;2024-03-29T02:28:18;0.63;;;0.60;;
50737;SDS011;36703;48.154;17.126;2024-03-29T02:32:23;1.67;;;0.57;;
50737;SDS011;36703;48.154;17.126;2024-03-29T02:36:24;1.08;;;0.63;;
50737;SDS011;36703;48.154;17.126;2024-03-29T02:40:26;1.33;;;0.60;;
50737;SDS011;36703;48.154;17.126;2024-03-29T02:44:27;1.58;;;0.82;;
50737;SDS011;36703;48.154;17.126;2024-03-29T02:48:29;0.80;;;0.50;;
50737;SDS011;36703;48.154;17.126;2024-03-29T02:52:30;1.05;;;0.80;;
50737;SDS011;36703;48.154;17.126;2024-03-29T02:56:32;1.98;;;0.70;;
50737;SDS011;36703;48.154;17.126;2024-03-29T03:00:33;0.80;;;0.65;;
50737;SDS011;36703;48.154;17.126;2024-03-29T03:04:35;1.02;;;0.60;;
50737;SDS011;36703;48.154;17.126;2024-03-29T03:08:36;0.95;;;0.60;;
50737;SDS011;36703;48.154;17.126;2024-03-29T03:12:57;1.15;;;0.60;;
50737;SDS011;36703;48.154;17.126;2024-03-29T03:16:58;0.70;;;0.52;;
50737;SDS011;36703;48.154;17.126;2024-03-29T03:21:01;0.90;;;0.60;;
50737;SDS011;36703;48.154;17.126;2024-03-29T03:25:03;0.82;;;0.60;;
50737;SDS011;36703;48.154;17.126;2024-03-29T03:29:05;2.30;;;0.70;;
50737;SDS011;36703;48.154;17.126;2024-03-29T03:33:08;1.88;;;0.80;;
50737;SDS011;36703;48.154;17.126;2024-03-29T03:37:10;1.13;;;0.68;;
50737;SDS011;36703;48.154;17.126;2024-03-29T03:41:11;1.20;;;0.70;;
50737;SDS011;36703;48.154;17.126;2024-03-29T03:45:13;0.90;;;0.70;;
50737;SDS011;36703;48.154;17.126;2024-03-29T03:49:15;2.08;;;0.75;;
50737;SDS011;36703;48.154;17.126;2024-03-29T03:53:16;0.90;;;0.80;;
50737;SDS011;36703;48.154;17.126;2024-03-29T03:57:18;1.30;;;1.00;;
50737;SDS011;36703;48.154;17.126;2024-03-29T04:01:19;1.17;;;0.82;;
50737;SDS011;36703;48.154;17.126;2024-03-29T04:05:21;1.27;;;1.05;;
50737;SDS011;36703;48.154;17.126;2024-03-29T04:09:23;1.52;;;0.90;;
50737;SDS011;36703;48.154;17.126;2024-03-29T04:13:26;1.08;;;0.85;;
50737;SDS011;36703;48.154;17.126;2024-03-29T04:17:27;2.00;;;1.00;;
50737;SDS011;36703;48.154;17.126;2024-03-29T04:21:31;1.50;;;1.00;;
50737;SDS011;36703;48.154;17.126;2024-03-29T04:25:32;2.03;;;1.10;;
50737;SDS011;36703;48.154;17.126;2024-03-29T04:29:34;1.85;;;1.00;;
50737;SDS011;36703;48.154;17.126;2024-03-29T04:33:35;3.95;;;1.17;;
50737;SDS011;36703;48.154;17.126;2024-03-29T04:37:37;3.05;;;1.30;;
50737;SDS011;36703;48.154;17.126;2024-03-29T04:41:38;3.80;;;1.42;;
50737;SDS011;36703;48.154;17.126;2024-03-29T04:45:40;3.53;;;1.80;;
50737;SDS011;36703;48.154;17.126;2024-03-29T04:49:41;2.97;;;1.55;;
50737;SDS011;36703;48.154;17.126;2024-03-29T04:53:43;3.13;;;1.90;;
50737;SDS011;36703;48.154;17.126;2024-03-29T04:57:44;2.30;;;1.67;;
50737;SDS011;36703;48.154;17.126;2024-03-29T05:01:46;2.92;;;1.98;;
50737;SDS011;36703;48.154;17.126;2024-03-29T05:05:51;2.47;;;1.75;;
50737;SDS011;36703;48.154;17.126;2024-03-29T05:09:54;3.42;;;2.10;;
50737;SDS011;36703;48.154;17.126;2024-03-29T05:13:56;2.95;;;2.38;;
50737;SDS011;36703;48.154;17.126;2024-03-29T05:18:01;2.78;;;2.08;;
50737;SDS011;36703;48.154;17.126;2024-03-29T05:22:03;3.58;;;2.10;;
50737;SDS011;36703;48.154;17.126;2024-03-29T05:26:04;3.97;;;2.00;;
50737;SDS011;36703;48.154;17.126;2024-03-29T05:30:06;4.22;;;2.20;;
50737;SDS011;36703;48.154;17.126;2024-03-29T05:34:10;3.15;;;1.83;;
50737;SDS011;36703;48.154;17.126;2024-03-29T05:38:11;2.63;;;2.00;;
50737;SDS011;36703;48.154;17.126;2024-03-29T05:42:13;2.70;;;1.60;;
50737;SDS011;36703;48.154;17.126;2024-03-29T05:46:15;4.65;;;2.08;;
50737;SDS011;36703;48.154;17.126;2024-03-29T05:50:18;2.60;;;2.15;;
50737;SDS011;36703;48.154;17.126;2024-03-29T05:54:20;2.70;;;2.05;;
50737;SDS011;36703;48.154;17.126;2024-03-29T05:58:23;1.70;;;1.42;;
50737;SDS011;36703;48.154;17.126;2024-03-29T06:02:25;2.53;;;1.77;;
50737;SDS011;36703;48.154;17.126;2024-03-29T06:06:26;4.38;;;2.05;;
50737;SDS011;36703;48.154;17.126;2024-03-29T06:10:28;2.55;;;1.77;;
50737;SDS011;36703;48.154;17.126;2024-03-29T06:14:29;2.25;;;1.83;;
50737;SDS011;36703;48.154;17.126;2024-03-29T06:18:49;3.20;;;2.25;;
50737;SDS011;36703;48.154;17.126;2024-03-29T06:22:50;2.70;;;2.17;;
50737;SDS011;36703;48.154;17.126;2024-03-29T06:26:52;3.92;;;2.33;;
50737;SDS011;36703;48.154;17.126;2024-03-29T06:30:54;3.75;;;2.80;;
50737;SDS011;36703;48.154;17.126;2024-03-29T06:34:56;3.25;;;2.67;;
50737;SDS011;36703;48.154;17.126;2024-03-29T06:38:59;3.53;;;2.38;;
50737;SDS011;36703;48.154;17.126;2024-03-29T06:43:01;3.83;;;2.60;;
50737;SDS011;36703;48.154;17.126;2024-03-29T06:47:03;3.10;;;2.42;;
50737;SDS011;36703;48.154;17.126;2024-03-29T06:51:05;3.28;;;2.15;;
50737;SDS011;36703;48.154;17.126;2024-03-29T06:55:07;3.42;;;1.90;;
50737;SDS011;36703;48.154;17.126;2024-03-29T06:59:10;1.85;;;1.55;;
50737;SDS011;36703;48.154;17.126;2024-03-29T07:03:12;1.60;;;1.40;;
50737;SDS011;36703;48.154;17.126;2024-03-29T07:07:14;0.93;;;0.60;;
50737;SDS011;36703;48.154;17.126;2024-03-29T07:11:15;0.80;;;0.52;;
50737;SDS011;36703;48.154;17.126;2024-03-29T07:15:17;0.55;;;0.40;;
50737;SDS011;36703;48.154;17.126;2024-03-29T07:19:19;0.50;;;0.40;;
50737;SDS011;36703;48.154;17.126;2024-03-29T07:23:21;0.93;;;0.70;;
50737;SDS011;36703;48.154;17.126;2024-03-29T07:27:23;0.55;;;0.45;;
50737;SDS011;36703;48.154;17.126;2024-03-29T07:31:24;1.42;;;0.40;;
50737;SDS011;36703;48.154;17.126;2024-03-29T07:35:26;0.25;;;0.20;;
50737;SDS011;36703;48.154;17.126;2024-03-29T07:39:27;0.65;;;0.40;;
50737;SDS011;36703;48.154;17.126;2024-03-29T07:43:36;0.52;;;0.22;;
50737;SDS011;36703;48.154;17.126;2024-03-29T07:47:40;1.75;;;0.30;;
50737;SDS011;36703;48.154;17.126;2024-03-29T07:51:42;0.85;;;0.30;;
50737;SDS011;36703;48.154;17.126;2024-03-29T07:55:43;0.50;;;0.22;;
50737;SDS011;36703;48.154;17.126;2024-03-29T07:59:45;1.92;;;0.25;;
50737;SDS011;36703;48.154;17.126;2024-03-29T08:03:47;1.65;;;0.15;;
50737;SDS011;36703;48.154;17.126;2024-03-29T08:07:51;8.88;;;0.63;;
50737;SDS011;36703;48.154;17.126;2024-03-29T08:11:53;17.30;;;12.40;;
50737;SDS011;36703;48.154;17.126;2024-03-29T08:16:00;20.35;;;14.60;;
50737;SDS011;36703;48.154;17.126;2024-03-29T08:20:03;1.05;;;0.60;;
50737;SDS011;36703;48.154;17.126;2024-03-29T08:24:05;0.90;;;0.50;;
50737;SDS011;36703;48.154;17.126;2024-03-29T08:28:07;1.50;;;0.47;;
50737;SDS011;36703;48.154;17.126;2024-03-29T08:32:08;2.83;;;0.22;;
50737;SDS011;36703;48.154;17.126;2024-03-29T08:36:11;1.30;;;0.38;;
50737;SDS011;36703;48.154;17.126;2024-03-29T08:40:12;2.33;;;0.57;;
50737;SDS011;36703;48.154;17.126;2024-03-29T08:44:14;2.53;;;0.40;;
50737;SDS011;36703;48.154;17.126;2024-03-29T08:48:15;0.88;;;0.30;;
50737;SDS011;36703;48.154;17.126;2024-03-29T08:52:17;0.52;;;0.30;;
50737;SDS011;36703;48.154;17.126;2024-03-29T08:56:19;1.88;;;0.60;;
50737;SDS011;36703;48.154;17.126;2024-03-29T09:00:20;2.50;;;0.50;;
50737;SDS011;36703;48.154;17.126;2024-03-29T09:04:22;3.53;;;0.60;;
50737;SDS011;36703;48.154;17.126;2024-03-29T09:08:25;5.45;;;2.47;;
50737;SDS011;36703;48.154;17.126;2024-03-29T09:12:26;2.92;;;0.90;;
50737;SDS011;36703;48.154;17.126;2024-03-29T09:16:28;4.88;;;0.98;;
50737;SDS011;36703;48.154;17.126;2024-03-29T09:20:31;2.85;;;0.70;;
50737;SDS011;36703;48.154;17.126;2024-03-29T09:24:32;3.83;;;0.77;;
50737;SDS011;36703;48.154;17.126;2024-03-29T09:28:35;6.13;;;0.80;;
50737;SDS011;36703;48.154;17.126;2024-03-29T09:32:37;4.05;;;0.85;;
50737;SDS011;36703;48.154;17.126;2024-03-29T09:36:39;3.35;;;0.70;;
50737;SDS011;36703;48.154;17.126;2024-03-29T09:40:41;3.17;;;0.68;;
50737;SDS011;36703;48.154;17.126;2024-03-29T09:44:43;4.88;;;0.77;;
50737;SDS011;36703;48.154;17.126;2024-03-29T09:48:46;4.93;;;1.33;;
50737;SDS011;36703;48.154;17.126;2024-03-29T09:52:49;2.47;;;0.90;;
50737;SDS011;36703;48.154;17.126;2024-03-29T09:56:51;4.47;;;1.17;;
50737;SDS011;36703;48.154;17.126;2024-03-29T10:00:54;3.65;;;0.88;;
50737;SDS011;36703;48.154;17.126;2024-03-29T10:04:56;3.22;;;0.80;;
50737;SDS011;36703;48.154;17.126;2024-03-29T10:09:04;2.13;;;0.70;;
50737;SDS011;36703;48.154;17.126;2024-03-29T10:13:05;1.75;;;0.80;;
50737;SDS011;36703;48.154;17.126;2024-03-29T10:17:07;3.08;;;0.68;;
50737;SDS011;36703;48.154;17.126;2024-03-29T10:21:08;3.30;;;0.80;;
50737;SDS011;36703;48.154;17.126;2024-03-29T10:25:10;4.53;;;0.98;;
50737;SDS011;36703;48.154;17.126;2024-03-29T10:29:14;4.38;;;0.73;;
50737;SDS011;36703;48.154;17.126;2024-03-29T10:33:16;4.53;;;0.80;;
50737;SDS011;36703;48.154;17.126;2024-03-29T10:37:18;3.20;;;0.80;;
50737;SDS011;36703;48.154;17.126;2024-03-29T10:41:27;2.85;;;1.10;;
50737;SDS011;36703;48.154;17.126;2024-03-29T10:45:29;3.90;;;0.80;;
50737;SDS011;36703;48.154;17.126;2024-03-29T10:49:32;3.70;;;0.82;;
50737;SDS011;36703;48.154;17.126;2024-03-29T10:53:35;5.13;;;1.00;;
50737;SDS011;36703;48.154;17.126;2024-03-29T10:57:40;4.13;;;0.93;;
50737;SDS011;36703;48.154;17.126;2024-03-29T11:01:44;4.10;;;1.00;;
50737;SDS011;36703;48.154;17.126;2024-03-29T11:05:51;3.35;;;0.80;;
50737;SDS011;36703;48.154;17.126;2024-03-29T11:09:57;4.07;;;0.90;;
50737;SDS011;36703;48.154;17.126;2024-03-29T11:18:11;5.13;;;1.15;;
50737;SDS011;36703;48.154;17.126;2024-03-29T11:22:14;2.65;;;0.93;;
50737;SDS011;36703;48.154;17.126;2024-03-29T11:26:16;7.78;;;1.10;;
50737;SDS011;36703;48.154;17.126;2024-03-29T11:30:18;6.68;;;1.38;;
50737;SDS011;36703;48.154;17.126;2024-03-29T11:34:19;6.80;;;1.10;;
50737;SDS011;36703;48.154;17.126;2024-03-29T11:38:28;3.10;;;0.93;;
50737;SDS011;36703;48.154;17.126;2024-03-29T11:43:06;4.68;;;1.10;;
50737;SDS011;36703;48.154;17.126;2024-03-29T11:47:00;6.22;;;1.17;;
50737;SDS011;36703;48.154;17.126;2024-03-29T11:51:07;6.72;;;1.10;;
50737;SDS011;36703;48.154;17.126;2024-03-29T11:55:12;4.45;;;1.00;;
50737;SDS011;36703;48.154;17.126;2024-03-29T11:59:13;3.83;;;1.08;;
50737;SDS011;36703;48.154;17.126;2024-03-29T12:03:20;6.55;;;1.60;;
50737;SDS011;36703;48.154;17.126;2024-03-29T12:07:22;3.30;;;1.00;;
50737;SDS011;36703;48.154;17.126;2024-03-29T12:11:25;4.47;;;1.10;;
50737;SDS011;36703;48.154;17.126;2024-03-29T12:15:29;3.70;;;1.02;;
50737;SDS011;36703;48.154;17.126;2024-03-29T12:19:30;3.42;;;0.95;;
50737;SDS011;36703;48.154;17.126;2024-03-29T12:23:33;4.75;;;0.95;;
50737;SDS011;36703;48.154;17.126;2024-03-29T12:27:35;4.65;;;1.15;;
50737;SDS011;36703;48.154;17.126;2024-03-29T12:31:37;4.50;;;1.10;;
50737;SDS011;36703;48.154;17.126;2024-03-29T12:35:40;5.40;;;1.27;;
50737;SDS011;36703;48.154;17.126;2024-03-29T12:39:47;5.53;;;1.10;;
50737;SDS011;36703;48.154;17.126;2024-03-29T12:43:52;3.38;;;0.90;;
50737;SDS011;36703;48.154;17.126;2024-03-29T12:47:54;3.30;;;0.70;;
50737;SDS011;36703;48.154;17.126;2024-03-29T12:51:56;7.45;;;1.20;;
50737;SDS011;36703;48.154;17.126;2024-03-29T12:55:57;6.78;;;1.15;;
50737;SDS011;36703;48.154;17.126;2024-03-29T12:59:59;6.72;;;1.40;;
50737;SDS011;36703;48.154;17.126;2024-03-29T13:04:01;3.90;;;0.90;;
50737;SDS011;36703;48.154;17.126;2024-03-29T13:08:03;6.55;;;1.05;;
50737;SDS011;36703;48.154;17.126;2024-03-29T13:12:06;5.00;;;0.90;;
50737;SDS011;36703;48.154;17.126;2024-03-29T13:16:08;5.30;;;0.82;;
50737;SDS011;36703;48.154;17.126;2024-03-29T13:20:11;3.25;;;1.20;;
50737;SDS011;36703;48.154;17.126;2024-03-29T13:24:14;8.05;;;0.98;;
50737;SDS011;36703;48.154;17.126;2024-03-29T13:28:15;13.32;;;7.43;;
50737;SDS011;36703;48.154;17.126;2024-03-29T13:32:17;3.95;;;1.00;;
50737;SDS011;36703;48.154;17.126;2024-03-29T13:36:19;4.43;;;1.15;;
50737;SDS011;36703;48.154;17.126;2024-03-29T13:40:21;3.55;;;1.00;;
50737;SDS011;36703;48.154;17.126;2024-03-29T13:44:25;6.28;;;0.98;;
50737;SDS011;36703;48.154;17.126;2024-03-29T13:48:27;2.58;;;0.60;;
50737;SDS011;36703;48.154;17.126;2024-03-29T13:52:28;5.78;;;0.75;;
50737;SDS011;36703;48.154;17.126;2024-03-29T13:56:33;3.17;;;0.80;;
50737;SDS011;36703;48.154;17.126;2024-03-29T14:00:35;5.15;;;0.80;;
50737;SDS011;36703;48.154;17.126;2024-03-29T14:04:36;4.35;;;1.00;;
50737;SDS011;36703;48.154;17.126;2024-03-29T14:08:38;3.20;;;0.80;;
50737;SDS011;36703;48.154;17.126;2024-03-29T14:12:40;2.15;;;0.65;;
50737;SDS011;36703;48.154;17.126;2024-03-29T14:16:41;3.72;;;0.80;;
50737;SDS011;36703;48.154;17.126;2024-03-29T14:20:43;5.07;;;1.00;;
50737;SDS011;36703;48.154;17.126;2024-03-29T14:24:44;4.70;;;1.15;;
50737;SDS011;36703;48.154;17.126;2024-03-29T14:28:47;3.83;;;0.82;;
50737;SDS011;36703;48.154;17.126;2024-03-29T14:32:50;4.60;;;0.77;;
50737;SDS011;36703;48.154;17.126;2024-03-29T14:36:52;11.65;;;1.25;;
50737;SDS011;36703;48.154;17.126;2024-03-29T14:40:54;7.85;;;1.30;;
50737;SDS011;36703;48.154;17.126;2024-03-29T14:44:56;2.45;;;0.75;;
50737;SDS011;36703;48.154;17.126;2024-03-29T14:48:59;2.78;;;0.88;;
50737;SDS011;36703;48.154;17.126;2024-03-29T14:53:00;8.98;;;1.50;;
50737;SDS011;36703;48.154;17.126;2024-03-29T14:57:02;5.22;;;1.00;;
50737;SDS011;36703;48.154;17.126;2024-03-29T15:01:04;7.50;;;1.00;;
50737;SDS011;36703;48.154;17.126;2024-03-29T15:05:05;5.75;;;1.13;;
50737;SDS011;36703;48.154;17.126;2024-03-29T15:09:08;4.97;;;1.10;;
50737;SDS011;36703;48.154;17.126;2024-03-29T15:13:10;5.70;;;1.02;;
50737;SDS011;36703;48.154;17.126;2024-03-29T15:17:12;5.32;;;0.85;;
50737;SDS011;36703;48.154;17.126;2024-03-29T15:21:13;4.55;;;0.93;;
50737;SDS011;36703;48.154;17.126;2024-03-29T15:25:15;6.47;;;1.33;;
50737;SDS011;36703;48.154;17.126;2024-03-29T15:29:17;7.45;;;1.20;;
50737;SDS011;36703;48.154;17.126;2024-03-29T15:33:19;6.28;;;0.90;;
50737;SDS011;36703;48.154;17.126;2024-03-29T15:37:21;6.70;;;1.40;;
50737;SDS011;36703;48.154;17.126;2024-03-29T15:41:25;5.85;;;1.50;;
50737;SDS011;36703;48.154;17.126;2024-03-29T15:45:29;7.72;;;1.23;;
50737;SDS011;36703;48.154;17.126;2024-03-29T15:49:31;5.93;;;1.30;;
50737;SDS011;36703;48.154;17.126;2024-03-29T15:53:32;5.93;;;1.13;;
50737;SDS011;36703;48.154;17.126;2024-03-29T15:57:34;7.38;;;1.02;;
50737;SDS011;36703;48.154;17.126;2024-03-29T16:01:35;2.72;;;0.70;;
50737;SDS011;36703;48.154;17.126;2024-03-29T16:05:39;3.88;;;1.00;;
50737;SDS011;36703;48.154;17.126;2024-03-29T16:09:42;4.70;;;0.90;;
50737;SDS011;36703;48.154;17.126;2024-03-29T16:13:44;6.22;;;1.38;;
50737;SDS011;36703;48.154;17.126;2024-03-29T16:17:47;4.55;;;1.30;;
50737;SDS011;36703;48.154;17.126;2024-03-29T16:21:48;7.97;;;1.75;;
50737;SDS011;36703;48.154;17.126;2024-03-29T16:25:50;8.80;;;1.40;;
50737;SDS011;36703;48.154;17.126;2024-03-29T16:29:56;13.93;;;2.00;;
50737;SDS011;36703;48.154;17.126;2024-03-29T16:33:58;5.47;;;1.30;;
50737;SDS011;36703;48.154;17.126;2024-03-29T16:38:00;6.03;;;1.58;;
50737;SDS011;36703;48.154;17.126;2024-03-29T16:42:02;7.03;;;1.25;;
50737;SDS011;36703;48.154;17.126;2024-03-29T16:46:06;7.20;;;1.08;;
50737;SDS011;36703;48.154;17.126;2024-03-29T16:50:08;11.52;;;1.70;;
50737;SDS011;36703;48.154;17.126;2024-03-29T16:54:10;7.72;;;1.50;;
50737;SDS011;36703;48.154;17.126;2024-03-29T16:58:11;5.30;;;1.23;;
50737;SDS011;36703;48.154;17.126;2024-03-29T17:02:13;4.72;;;1.25;;
50737;SDS011;36703;48.154;17.126;2024-03-29T17:06:16;6.03;;;1.85;;
50737;SDS011;36703;48.154;17.126;2024-03-29T17:10:18;6.05;;;1.58;;
50737;SDS011;36703;48.154;17.126;2024-03-29T17:14:19;6.80;;;1.27;;
50737;SDS011;36703;48.154;17.126;2024-03-29T17:18:21;6.13;;;1.33;;
50737;SDS011;36703;48.154;17.126;2024-03-29T17:22:22;5.50;;;1.42;;
50737;SDS011;36703;48.154;17.126;2024-03-29T17:26:24;8.02;;;1.27;;
50737;SDS011;36703;48.154;17.126;2024-03-29T17:30:26;9.32;;;1.33;;
50737;SDS011;36703;48.154;17.126;2024-03-29T17:34:27;7.63;;;1.25;;
50737;SDS011;36703;48.154;17.126;2024-03-29T17:38:29;11.15;;;1.55;;
50737;SDS011;36703;48.154;17.126;2024-03-29T17:42:30;7.53;;;1.70;;
50737;SDS011;36703;48.154;17.126;2024-03-29T17:46:32;5.38;;;1.40;;
50737;SDS011;36703;48.154;17.126;2024-03-29T17:50:35;12.13;;;1.83;;
50737;SDS011;36703;48.154;17.126;2024-03-29T17:54:36;7.85;;;1.55;;
50737;SDS011;36703;48.154;17.126;2024-03-29T17:58:38;15.10;;;1.77;;
50737;SDS011;36703;48.154;17.126;2024-03-29T18:02:40;9.73;;;1.42;;
50737;SDS011;36703;48.154;17.126;2024-03-29T18:06:42;9.85;;;1.98;;
50737;SDS011;36703;48.154;17.126;2024-03-29T18:10:43;3.60;;;1.02;;
50737;SDS011;36703;48.154;17.126;2024-03-29T18:14:45;9.52;;;1.63;;
50737;SDS011;36703;48.154;17.126;2024-03-29T18:18:48;12.93;;;1.80;;
50737;SDS011;36703;48.154;17.126;2024-03-29T18:22:50;10.07;;;1.92;;
50737;SDS011;36703;48.154;17.126;2024-03-29T18:26:52;6.60;;;1.50;;
50737;SDS011;36703;48.154;17.126;2024-03-29T18:30:54;8.52;;;2.38;;
50737;SDS011;36703;48.154;17.126;2024-03-29T18:35:02;6.95;;;1.88;;
50737;SDS011;36703;48.154;17.126;2024-03-29T18:39:04;9.75;;;2.17;;
50737;SDS011;36703;48.154;17.126;2024-03-29T18:43:06;9.75;;;1.75;;
50737;SDS011;36703;48.154;17.126;2024-03-29T18:47:07;5.28;;;1.38;;
50737;SDS011;36703;48.154;17.126;2024-03-29T18:51:09;13.45;;;2.42;;
50737;SDS011;36703;48.154;17.126;2024-03-29T18:55:11;8.65;;;1.45;;
50737;SDS011;36703;48.154;17.126;2024-03-29T18:59:13;8.82;;;1.52;;
50737;SDS011;36703;48.154;17.126;2024-03-29T19:03:17;10.52;;;1.52;;
50737;SDS011;36703;48.154;17.126;2024-03-29T19:07:19;14.70;;;2.05;;
50737;SDS011;36703;48.154;17.126;2024-03-29T19:11:20;17.17;;;2.50;;
50737;SDS011;36703;48.154;17.126;2024-03-29T19:15:24;10.77;;;2.17;;
50737;SDS011;36703;48.154;17.126;2024-03-29T19:19:26;9.88;;;1.98;;
50737;SDS011;36703;48.154;17.126;2024-03-29T19:23:28;9.18;;;1.50;;
50737;SDS011;36703;48.154;17.126;2024-03-29T19:27:31;13.15;;;1.55;;
50737;SDS011;36703;48.154;17.126;2024-03-29T19:31:32;12.27;;;2.13;;
50737;SDS011;36703;48.154;17.126;2024-03-29T19:35:34;13.63;;;1.85;;
50737;SDS011;36703;48.154;17.126;2024-03-29T19:39:36;12.38;;;2.28;;
50737;SDS011;36703;48.154;17.126;2024-03-29T19:43:37;9.23;;;1.90;;
50737;SDS011;36703;48.154;17.126;2024-03-29T19:47:39;11.73;;;2.10;;
50737;SDS011;36703;48.154;17.126;2024-03-29T19:51:40;13.88;;;2.00;;
50737;SDS011;36703;48.154;17.126;2024-03-29T19:55:45;11.63;;;2.22;;
50737;SDS011;36703;48.154;17.126;2024-03-29T19:59:53;17.10;;;2.20;;
50737;SDS011;36703;48.154;17.126;2024-03-29T20:03:55;10.07;;;2.15;;
50737;SDS011;36703;48.154;17.126;2024-03-29T20:07:56;10.68;;;1.95;;
50737;SDS011;36703;48.154;17.126;2024-03-29T20:11:58;11.43;;;2.05;;
50737;SDS011;36703;48.154;17.126;2024-03-29T20:16:01;13.45;;;1.90;;
50737;SDS011;36703;48.154;17.126;2024-03-29T20:20:06;13.55;;;1.80;;
50737;SDS011;36703;48.154;17.126;2024-03-29T20:24:08;19.30;;;2.15;;
50737;SDS011;36703;48.154;17.126;2024-03-29T20:28:13;13.85;;;1.73;;
50737;SDS011;36703;48.154;17.126;2024-03-29T20:32:18;11.18;;;1.73;;
50737;SDS011;36703;48.154;17.126;2024-03-29T20:36:21;17.75;;;2.10;;
50737;SDS011;36703;48.154;17.126;2024-03-29T20:40:23;16.67;;;2.47;;
50737;SDS011;36703;48.154;17.126;2024-03-29T20:44:25;14.75;;;2.45;;
50737;SDS011;36703;48.154;17.126;2024-03-29T20:48:27;17.35;;;2.15;;
50737;SDS011;36703;48.154;17.126;2024-03-29T20:52:29;14.55;;;2.30;;
50737;SDS011;36703;48.154;17.126;2024-03-29T20:56:31;10.98;;;1.92;;
50737;SDS011;36703;48.154;17.126;2024-03-29T21:00:32;12.15;;;2.10;;
50737;SDS011;36703;48.154;17.126;2024-03-29T21:04:34;14.07;;;2.53;;
50737;SDS011;36703;48.154;17.126;2024-03-29T21:08:54;10.35;;;1.80;;
50737;SDS011;36703;48.154;17.126;2024-03-29T21:12:58;16.02;;;2.20;;
50737;SDS011;36703;48.154;17.126;2024-03-29T21:17:04;21.02;;;2.63;;
50737;SDS011;36703;48.154;17.126;2024-03-29T21:21:06;18.08;;;2.53;;
50737;SDS011;36703;48.154;17.126;2024-03-29T21:25:08;16.70;;;2.30;;
50737;SDS011;36703;48.154;17.126;2024-03-29T21:29:10;19.73;;;2.58;;
50737;SDS011;36703;48.154;17.126;2024-03-29T21:33:12;13.43;;;2.40;;
50737;SDS011;36703;48.154;17.126;2024-03-29T21:37:14;20.38;;;2.53;;
50737;SDS011;36703;48.154;17.126;2024-03-29T21:41:15;19.63;;;2.60;;
50737;SDS011;36703;48.154;17.126;2024-03-29T21:45:19;15.35;;;2.35;;
50737;SDS011;36703;48.154;17.126;2024-03-29T21:49:21;28.77;;;5.22;;
50737;SDS011;36703;48.154;17.126;2024-03-29T21:53:22;30.00;;;8.32;;
50737;SDS011;36703;48.154;17.126;2024-03-29T21:57:24;24.65;;;5.72;;
50737;SDS011;36703;48.154;17.126;2024-03-29T22:01:26;23.50;;;2.90;;
50737;SDS011;36703;48.154;17.126;2024-03-29T22:05:27;20.77;;;2.88;;
50737;SDS011;36703;48.154;17.126;2024-03-29T22:09:32;19.80;;;2.67;;
50737;SDS011;36703;48.154;17.126;2024-03-29T22:13:34;19.40;;;2.70;;
50737;SDS011;36703;48.154;17.126;2024-03-29T22:17:36;22.80;;;2.72;;
50737;SDS011;36703;48.154;17.126;2024-03-29T22:21:38;25.92;;;3.30;;
50737;SDS011;36703;48.154;17.126;2024-03-29T22:25:40;23.35;;;2.97;;
50737;SDS011;36703;48.154;17.126;2024-03-29T22:29:44;19.25;;;3.15;;
50737;SDS011;36703;48.154;17.126;2024-03-29T22:33:46;23.05;;;3.00;;
50737;SDS011;36703;48.154;17.126;2024-03-29T22:37:48;28.60;;;2.90;;
50737;SDS011;36703;48.154;17.126;2024-03-29T22:41:49;21.48;;;2.78;;
50737;SDS011;36703;48.154;17.126;2024-03-29T22:45:51;17.58;;;2.78;;
50737;SDS011;36703;48.154;17.126;2024-03-29T22:49:56;18.05;;;3.40;;
50737;SDS011;36703;48.154;17.126;2024-03-29T22:53:57;21.30;;;2.95;;
50737;SDS011;36703;48.154;17.126;2024-03-29T22:57:59;24.00;;;3.20;;
50737;SDS011;36703;48.154;17.126;2024-03-29T23:02:04;24.83;;;3.00;;
50737;SDS011;36703;48.154;17.126;2024-03-29T23:06:06;17.00;;;2.80;;
50737;SDS011;36703;48.154;17.126;2024-03-29T23:10:08;16.17;;;2.78;;
50737;SDS011;36703;48.154;17.126;2024-03-29T23:14:10;15.88;;;2.65;;
50737;SDS011;36703;48.154;17.126;2024-03-29T23:18:12;19.95;;;3.20;;
50737;SDS011;36703;48.154;17.126;2024-03-29T23:22:14;16.20;;;2.65;;
50737;SDS011;36703;48.154;17.126;2024-03-29T23:26:16;22.13;;;6.63;;
50737;SDS011;36703;48.154;17.126;2024-03-29T23:30:19;27.77;;;9.10;;
50737;SDS011;36703;48.154;17.126;2024-03-29T23:34:20;16.75;;;3.83;;
50737;SDS011;36703;48.154;17.126;2024-03-29T23:38:22;17.77;;;3.05;;
50737;SDS011;36703;48.154;17.126;2024-03-29T23:42:24;20.90;;;3.22;;
50737;SDS011;36703;48.154;17.126;2024-03-29T23:46:26;17.67;;;3.40;;
50737;SDS011;36703;48.154;17.126;2024-03-29T23:50:28;25.52;;;2.78;;
50737;SDS011;36703;48.154;17.126;2024-03-29T23:54:30;17.20;;;3.13;;
50737;SDS011;36703;48.154;17.126;2024-03-29T23:58:34;15.50;;;3.15;;
